Time;durP1;ratioP1;P1;durP2;ratioP2;P2;SDS_P1;SDS_P2;PMS_P1;PMS_P2;Temp;Humidity;BMP_temperature;BMP_pressure;BME280_temperature;BME280_humidity;BME280_pressure;Samples;Min_cycle;Max_cycle;Signal;HPM_P1;HPM_P2
2023/04/20 00:01:03;;;;;;;14.05;4.75;;;7.80;99.90;;;;;;5011904;28;20022;-48
2023/04/20 00:03:31;;;;;;;20.33;4.28;;;7.80;99.90;;;;;;5010368;28;20076;-54
2023/04/20 00:06:00;;;;;;;13.38;4.10;;;7.80;99.90;;;;;;5010355;28;20068;-56
2023/04/20 00:08:26;;;;;;;15.63;4.45;;;7.80;99.90;;;;;;5011647;28;20101;-52
2023/04/20 00:10:52;;;;;;;23.40;4.40;;;7.80;99.90;;;;;;5012159;28;20561;-55
2023/04/20 00:13:17;;;;;;;17.27;4.60;;;7.80;99.90;;;;;;5011853;28;20034;-54
2023/04/20 00:15:43;;;;;;;13.65;4.30;;;7.80;99.90;;;;;;5011665;28;20085;-53
2023/04/20 00:18:08;;;;;;;17.50;4.53;;;7.90;99.90;;;;;;5011579;28;20022;-56
2023/04/20 00:20:34;;;;;;;16.77;5.28;;;7.90;99.90;;;;;;5010090;28;20393;-53
2023/04/20 00:23:00;;;;;;;16.13;4.05;;;7.90;99.90;;;;;;5011553;28;20022;-54
2023/04/20 00:25:26;;;;;;;17.15;4.95;;;7.90;99.90;;;;;;5011394;28;20470;-54
2023/04/20 00:27:51;;;;;;;19.33;4.47;;;7.80;99.90;;;;;;5011399;28;20137;-53
2023/04/20 00:30:17;;;;;;;16.80;4.35;;;7.80;99.90;;;;;;5011127;28;20030;-54
2023/04/20 00:32:43;;;;;;;15.13;4.20;;;7.80;99.90;;;;;;5011165;28;20045;-54
2023/04/20 00:35:08;;;;;;;19.42;4.60;;;7.80;99.90;;;;;;5011520;28;20026;-55
2023/04/20 00:37:34;;;;;;;18.23;4.20;;;7.70;99.90;;;;;;5010970;28;20068;-54
2023/04/20 00:40:00;;;;;;;19.10;4.18;;;7.70;99.90;;;;;;5011380;28;20121;-54
2023/04/20 00:42:25;;;;;;;13.90;4.90;;;7.70;99.90;;;;;;5011051;28;20456;-57
2023/04/20 00:44:51;;;;;;;18.40;4.60;;;7.70;99.90;;;;;;5011030;28;20034;-54
2023/04/20 00:47:17;;;;;;;14.20;4.25;;;7.70;99.90;;;;;;5011195;28;20025;-50
2023/04/20 00:49:42;;;;;;;20.02;3.63;;;7.70;99.90;;;;;;5009642;28;20025;-57
2023/04/20 00:52:08;;;;;;;21.30;4.25;;;7.70;99.90;;;;;;5010823;28;20030;-55
2023/04/20 00:54:35;;;;;;;13.63;3.97;;;7.60;99.90;;;;;;5010769;28;20114;-54
2023/04/20 00:57:02;;;;;;;20.55;4.47;;;7.60;99.90;;;;;;5010500;28;20388;-56
2023/04/20 00:59:27;;;;;;;18.63;5.05;;;7.70;99.90;;;;;;5010594;28;20489;-52
2023/04/20 01:01:53;;;;;;;16.10;4.25;;;7.60;99.90;;;;;;5009655;28;20022;-51
2023/04/20 01:04:19;;;;;;;16.80;3.83;;;7.60;99.90;;;;;;5010819;28;20018;-53
2023/04/20 01:06:45;;;;;;;21.70;4.80;;;7.60;99.90;;;;;;5010661;28;20485;-53
2023/04/20 01:09:11;;;;;;;21.92;5.43;;;7.60;99.90;;;;;;5010942;28;20117;-56
2023/04/20 01:11:37;;;;;;;16.77;4.45;;;7.60;99.90;;;;;;5010797;28;20041;-55
2023/04/20 01:14:03;;;;;;;16.00;4.22;;;7.60;99.90;;;;;;5010714;28;20105;-50
2023/04/20 01:16:30;;;;;;;17.50;5.25;;;7.50;99.90;;;;;;5010873;28;20154;-52
2023/04/20 01:18:56;;;;;;;21.45;4.55;;;7.50;99.90;;;;;;5010782;28;20393;-54
2023/04/20 01:21:22;;;;;;;18.52;4.57;;;7.50;99.90;;;;;;5010594;28;20026;-52
2023/04/20 01:23:48;;;;;;;14.95;5.18;;;7.50;99.90;;;;;;5010676;28;20053;-51
2023/04/20 01:26:16;;;;;;;18.40;4.45;;;7.50;99.90;;;;;;5010587;28;20370;-53
2023/04/20 01:28:42;;;;;;;17.52;5.05;;;7.40;99.90;;;;;;5011013;28;20473;-54
2023/04/20 01:31:09;;;;;;;16.67;4.97;;;7.40;99.90;;;;;;5010414;28;20105;-52
2023/04/20 01:33:35;;;;;;;16.95;4.72;;;7.30;99.90;;;;;;5010753;28;20037;-53
2023/04/20 01:36:01;;;;;;;14.65;5.10;;;7.30;99.90;;;;;;5010482;28;20416;-54
2023/04/20 01:38:27;;;;;;;14.63;4.55;;;7.30;99.90;;;;;;5010690;28;20030;-54
2023/04/20 01:40:54;;;;;;;16.95;4.88;;;7.20;99.90;;;;;;5010163;28;20456;-56
2023/04/20 01:43:22;;;;;;;13.18;5.00;;;7.20;99.90;;;;;;5010177;28;20036;-55
2023/04/20 01:45:47;;;;;;;18.00;5.05;;;7.20;99.90;;;;;;5010506;28;20034;-55
2023/04/20 01:48:13;;;;;;;18.50;5.18;;;7.20;99.90;;;;;;5010513;28;20022;-57
2023/04/20 01:50:39;;;;;;;15.73;5.38;;;7.20;99.90;;;;;;5009361;28;20034;-53
2023/04/20 01:53:04;;;;;;;17.95;5.55;;;7.20;99.90;;;;;;5009263;28;20377;-57
2023/04/20 01:55:30;;;;;;;18.38;5.32;;;7.20;99.90;;;;;;5010466;28;20500;-52
2023/04/20 01:57:55;;;;;;;14.55;4.85;;;7.10;99.90;;;;;;5010271;28;20029;-52
2023/04/20 02:00:21;;;;;;;14.90;5.18;;;7.10;99.90;;;;;;5008725;28;20432;-49
2023/04/20 02:02:47;;;;;;;19.90;5.18;;;7.10;99.90;;;;;;5008530;28;20518;-48
2023/04/20 02:05:12;;;;;;;15.50;4.80;;;7.10;99.90;;;;;;5010173;28;20104;-53
2023/04/20 02:07:38;;;;;;;17.92;5.43;;;7.00;99.90;;;;;;5008521;28;20022;-48
2023/04/20 02:10:04;;;;;;;18.10;5.78;;;7.00;99.90;;;;;;5013525;28;20049;-56
2023/04/20 02:12:29;;;;;;;17.00;4.93;;;6.90;99.90;;;;;;5013344;28;20092;-54
2023/04/20 02:14:55;;;;;;;16.15;5.88;;;6.90;99.90;;;;;;5013156;28;20053;-51
2023/04/20 02:17:21;;;;;;;18.58;5.72;;;6.90;99.90;;;;;;5013463;28;20112;-61
2023/04/20 02:19:46;;;;;;;18.98;5.47;;;6.90;99.90;;;;;;5012225;28;20429;-51
2023/04/20 02:22:12;;;;;;;17.10;6.13;;;6.90;99.90;;;;;;5013166;28;20029;-52
2023/04/20 02:24:38;;;;;;;18.15;6.35;;;6.90;99.90;;;;;;5013530;28;20026;-50
2023/04/20 02:27:04;;;;;;;16.45;5.80;;;6.90;99.90;;;;;;5013207;28;20025;-51
2023/04/20 02:29:30;;;;;;;19.98;6.15;;;6.90;99.90;;;;;;5013808;28;20432;-59
2023/04/20 02:31:56;;;;;;;17.77;6.50;;;6.80;99.90;;;;;;5013344;28;20032;-51
2023/04/20 02:34:21;;;;;;;23.15;6.45;;;6.80;99.90;;;;;;5028444;28;20454;-52
2023/04/20 02:36:47;;;;;;;22.52;6.45;;;6.80;99.90;;;;;;5013547;28;20444;-56
2023/04/20 02:39:13;;;;;;;17.30;6.30;;;6.80;99.90;;;;;;5013049;28;20026;-51
2023/04/20 02:41:39;;;;;;;25.75;7.03;;;6.80;99.90;;;;;;5013331;28;20061;-54
2023/04/20 02:44:04;;;;;;;26.60;6.82;;;6.80;99.90;;;;;;5012036;28;20088;-51
2023/04/20 02:46:30;;;;;;;28.77;7.32;;;6.80;99.90;;;;;;5012984;28;20432;-51
2023/04/20 02:48:55;;;;;;;21.55;7.57;;;6.80;99.90;;;;;;5013395;28;20028;-55
2023/04/20 02:51:21;;;;;;;19.30;6.47;;;6.90;99.90;;;;;;5012997;28;20536;-53
2023/04/20 02:53:47;;;;;;;22.73;7.50;;;6.80;99.90;;;;;;5013058;28;20022;-53
2023/04/20 02:56:12;;;;;;;18.48;6.55;;;6.80;99.90;;;;;;5012534;28;20061;-49
2023/04/20 02:58:38;;;;;;;21.63;7.53;;;6.70;99.90;;;;;;5012890;28;20042;-49
2023/04/20 03:01:04;;;;;;;17.98;6.82;;;6.70;99.90;;;;;;5011393;28;20037;-52
2023/04/20 03:03:30;;;;;;;22.02;7.43;;;6.70;99.90;;;;;;5012540;28;20164;-49
2023/04/20 03:05:55;;;;;;;17.08;6.88;;;6.60;99.90;;;;;;5011905;28;20045;-51
2023/04/20 03:08:22;;;;;;;20.20;6.60;;;6.60;99.90;;;;;;5012556;28;20064;-51
2023/04/20 03:10:47;;;;;;;19.58;7.05;;;6.60;99.90;;;;;;5012783;28;20026;-55
2023/04/20 03:13:13;;;;;;;17.95;6.70;;;6.50;99.90;;;;;;5012536;28;20026;-52
2023/04/20 03:15:39;;;;;;;20.42;6.95;;;6.50;99.90;;;;;;5011271;28;20053;-54
2023/04/20 03:18:05;;;;;;;20.92;6.40;;;6.40;99.90;;;;;;5012450;28;20176;-57
2023/04/20 03:20:31;;;;;;;23.10;7.25;;;6.40;99.90;;;;;;5011414;28;20083;-55
2023/04/20 03:22:57;;;;;;;25.42;7.65;;;6.30;99.90;;;;;;5012452;28;20026;-52
2023/04/20 03:25:22;;;;;;;17.90;6.57;;;6.30;99.90;;;;;;5012417;28;20041;-53
2023/04/20 03:27:48;;;;;;;13.65;6.30;;;6.20;99.90;;;;;;5012312;28;20108;-56
2023/04/20 03:30:14;;;;;;;21.17;7.35;;;6.10;99.90;;;;;;5010906;28;20080;-49
2023/04/20 03:32:41;;;;;;;20.35;6.60;;;6.20;99.90;;;;;;5012137;28;20516;-56
2023/04/20 03:35:07;;;;;;;22.52;6.85;;;6.10;99.90;;;;;;5012279;28;20044;-49
2023/04/20 03:37:35;;;;;;;23.63;7.40;;;6.10;99.90;;;;;;5012160;28;20104;-52
2023/04/20 03:40:01;;;;;;;19.33;6.72;;;6.00;99.90;;;;;;5012307;28;20018;-52
2023/04/20 03:42:26;;;;;;;19.17;7.43;;;6.00;99.90;;;;;;5010754;28;20088;-53
2023/04/20 03:44:52;;;;;;;22.27;8.10;;;6.10;99.90;;;;;;5012116;28;20100;-57
2023/04/20 03:47:17;;;;;;;19.25;6.95;;;6.10;99.90;;;;;;5012206;28;20033;-51
2023/04/20 03:49:43;;;;;;;17.25;7.35;;;6.10;99.90;;;;;;5009503;28;20420;-51
2023/04/20 03:52:09;;;;;;;19.75;7.22;;;6.10;99.90;;;;;;5011712;28;20034;-56
2023/04/20 03:54:34;;;;;;;20.52;7.85;;;6.10;99.90;;;;;;5011636;28;20018;-51
2023/04/20 03:57:01;;;;;;;28.83;8.65;;;6.20;99.90;;;;;;5011945;28;20030;-56
2023/04/20 03:59:26;;;;;;;21.27;7.50;;;6.10;99.90;;;;;;5011538;28;20050;-54
2023/04/20 04:01:53;;;;;;;19.92;7.40;;;6.00;99.90;;;;;;5012134;28;20402;-53
2023/04/20 04:04:18;;;;;;;21.73;7.63;;;6.00;99.90;;;;;;5011828;28;20496;-52
2023/04/20 04:06:44;;;;;;;19.95;7.38;;;6.00;99.90;;;;;;5011475;28;20033;-55
2023/04/20 04:09:10;;;;;;;17.63;7.20;;;6.00;99.90;;;;;;5011788;28;20026;-51
2023/04/20 04:11:35;;;;;;;19.27;7.35;;;6.00;99.90;;;;;;5011620;28;20499;-54
2023/04/20 04:14:03;;;;;;;20.67;6.97;;;6.00;99.90;;;;;;5011303;28;20377;-52
2023/04/20 04:16:30;;;;;;;24.08;7.53;;;5.90;99.90;;;;;;5010188;28;20030;-51
2023/04/20 04:18:55;;;;;;;17.88;7.60;;;5.90;99.90;;;;;;5011171;28;20018;-52
2023/04/20 04:21:21;;;;;;;19.08;7.38;;;5.90;99.90;;;;;;5010810;28;20028;-52
2023/04/20 04:23:48;;;;;;;23.42;7.45;;;5.90;99.90;;;;;;5011350;28;20037;-52
2023/04/20 04:26:13;;;;;;;20.77;7.85;;;5.90;99.90;;;;;;5010890;28;20034;-50
2023/04/20 04:28:39;;;;;;;24.63;8.43;;;5.80;99.90;;;;;;5011178;28;20072;-51
2023/04/20 04:31:05;;;;;;;19.33;7.70;;;5.80;99.90;;;;;;5010330;28;20030;-50
2023/04/20 04:33:33;;;;;;;26.90;7.15;;;5.70;99.90;;;;;;5011186;28;20436;-53
2023/04/20 04:35:59;;;;;;;21.38;7.63;;;5.70;99.90;;;;;;5010666;28;20091;-53
2023/04/20 04:38:25;;;;;;;23.05;8.00;;;5.70;99.90;;;;;;5011015;28;20032;-51
2023/04/20 04:40:51;;;;;;;17.52;7.07;;;5.70;99.90;;;;;;5011324;28;20036;-58
2023/04/20 04:43:18;;;;;;;21.90;7.45;;;5.70;99.90;;;;;;5010844;28;20026;-50
2023/04/20 04:45:44;;;;;;;22.05;7.32;;;5.60;99.90;;;;;;5011073;28;20033;-52
2023/04/20 04:48:10;;;;;;;16.27;7.03;;;5.60;99.90;;;;;;5010894;28;20018;-52
2023/04/20 04:50:37;;;;;;;18.58;7.20;;;5.60;99.90;;;;;;5010727;28;20061;-51
2023/04/20 04:53:03;;;;;;;19.08;7.43;;;5.50;99.90;;;;;;5011066;28;20097;-51
2023/04/20 04:55:28;;;;;;;19.50;7.10;;;5.50;99.90;;;;;;5010982;28;20535;-52
2023/04/20 04:57:54;;;;;;;19.65;7.80;;;5.50;99.90;;;;;;5010979;28;20497;-55
2023/04/20 05:00:21;;;;;;;16.35;7.25;;;5.40;99.90;;;;;;5010709;28;20390;-55
2023/04/20 05:02:46;;;;;;;19.88;7.60;;;5.40;99.90;;;;;;5010947;28;20030;-55
2023/04/20 05:05:12;;;;;;;25.30;7.80;;;5.40;99.90;;;;;;5010758;28;20045;-61
2023/04/20 05:07:38;;;;;;;17.85;7.70;;;5.40;99.90;;;;;;5009658;28;20026;-54
2023/04/20 05:10:05;;;;;;;25.90;8.75;;;5.40;99.90;;;;;;5011202;28;20040;-59
2023/04/20 05:12:31;;;;;;;18.75;7.28;;;5.50;99.90;;;;;;5010990;28;20416;-58
2023/04/20 05:14:57;;;;;;;20.92;6.90;;;5.50;99.90;;;;;;5010686;28;20447;-52
2023/04/20 05:17:22;;;;;;;18.48;7.22;;;5.50;99.90;;;;;;5010577;28;20040;-53
2023/04/20 05:19:48;;;;;;;14.68;7.03;;;5.60;99.90;;;;;;5010436;28;20101;-57
2023/04/20 05:22:14;;;;;;;27.73;7.70;;;5.60;99.90;;;;;;5010431;28;20030;-52
2023/04/20 05:24:41;;;;;;;21.80;6.95;;;5.60;99.90;;;;;;5010565;28;20022;-57
2023/04/20 05:27:07;;;;;;;16.48;7.88;;;5.70;99.90;;;;;;5010439;28;20765;-53
2023/04/20 05:29:33;;;;;;;20.02;7.53;;;5.70;99.90;;;;;;5010603;28;20053;-55
2023/04/20 05:31:59;;;;;;;17.85;7.03;;;5.80;99.90;;;;;;5010638;28;20065;-52
2023/04/20 05:34:25;;;;;;;14.60;6.53;;;5.90;99.90;;;;;;5010176;28;20025;-51
2023/04/20 05:36:51;;;;;;;18.05;6.38;;;5.90;99.90;;;;;;5010550;28;20026;-54
2023/04/20 05:39:17;;;;;;;15.95;6.32;;;5.90;99.90;;;;;;5010446;28;20063;-54
2023/04/20 05:41:43;;;;;;;17.60;6.57;;;6.00;99.90;;;;;;5010658;28;20092;-49
2023/04/20 05:44:08;;;;;;;14.27;5.97;;;6.00;99.90;;;;;;5013614;28;20036;-55
2023/04/20 05:46:34;;;;;;;18.17;6.78;;;6.10;99.90;;;;;;5014263;28;20030;-50
2023/04/20 05:48:59;;;;;;;15.15;6.00;;;6.10;99.90;;;;;;5014187;28;20033;-48
2023/04/20 05:51:29;;;;;;;13.30;6.03;;;6.20;99.90;;;;;;5013954;28;20080;-48
2023/04/20 05:53:54;;;;;;;14.57;5.38;;;6.30;99.90;;;;;;5014232;28;20030;-57
2023/04/20 05:56:20;;;;;;;13.18;6.32;;;6.30;99.90;;;;;;5013871;28;20037;-55
2023/04/20 05:58:47;;;;;;;15.23;5.30;;;6.30;99.90;;;;;;5013886;28;20149;-55
2023/04/20 06:01:12;;;;;;;9.05;5.00;;;6.40;99.90;;;;;;5012869;28;20030;-54
2023/04/20 06:03:38;;;;;;;12.15;5.38;;;6.50;99.90;;;;;;5012565;28;20500;-54
2023/04/20 06:06:04;;;;;;;14.00;5.38;;;6.50;99.90;;;;;;5013896;28;20077;-52
2023/04/20 06:08:30;;;;;;;13.18;5.88;;;6.60;99.90;;;;;;5013788;28;20045;-56
2023/04/20 06:10:56;;;;;;;13.82;5.63;;;6.70;99.90;;;;;;5013949;28;20139;-53
2023/04/20 06:13:23;;;;;;;15.32;5.15;;;6.70;99.90;;;;;;5013979;28;20504;-52
2023/04/20 06:15:48;;;;;;;9.60;4.95;;;6.80;99.90;;;;;;5013659;28;20492;-51
2023/04/20 06:18:14;;;;;;;10.35;4.93;;;6.90;99.90;;;;;;5013776;28;20030;-52
2023/04/20 06:20:42;;;;;;;13.93;5.35;;;7.00;99.90;;;;;;5013285;28;20026;-51
2023/04/20 06:23:08;;;;;;;12.77;5.60;;;7.10;99.90;;;;;;5013685;28;20103;-53
2023/04/20 06:25:35;;;;;;;11.80;5.15;;;7.20;99.90;;;;;;5013194;28;20100;-54
2023/04/20 06:28:02;;;;;;;11.23;4.65;;;7.40;99.90;;;;;;5013352;28;20024;-54
2023/04/20 06:30:28;;;;;;;12.60;5.32;;;7.50;99.90;;;;;;5013393;28;20119;-51
2023/04/20 06:32:54;;;;;;;13.68;5.07;;;7.80;99.90;;;;;;5013293;28;20032;-50
2023/04/20 06:35:21;;;;;;;9.85;4.93;;;8.60;99.90;;;;;;5013459;28;20026;-57
2023/04/20 06:37:47;;;;;;;10.35;4.20;;;10.10;99.90;;;;;;5011773;28;20026;-54
2023/04/20 06:40:13;;;;;;;9.80;3.90;;;11.80;99.90;;;;;;5013384;28;20033;-54
2023/04/20 06:42:38;;;;;;;12.20;4.30;;;13.50;99.90;;;;;;5013150;28;20022;-55
2023/04/20 06:45:05;;;;;;;8.77;4.20;;;15.00;98.10;;;;;;5013169;28;20053;-53
2023/04/20 06:47:32;;;;;;;9.75;3.58;;;16.50;92.50;;;;;;5013107;28;20030;-54
2023/04/20 06:49:59;;;;;;;12.40;4.63;;;17.50;82.70;;;;;;5013144;28;20026;-50
2023/04/20 06:52:25;;;;;;;12.13;4.00;;;18.10;74.80;;;;;;5013056;28;20026;-51
2023/04/20 06:54:51;;;;;;;10.52;3.63;;;18.70;70.50;;;;;;5011978;28;20054;-54
2023/04/20 06:57:17;;;;;;;10.20;3.35;;;18.20;65.10;;;;;;5013090;28;20025;-50
2023/04/20 06:59:42;;;;;;;9.48;3.88;;;19.00;64.70;;;;;;5012665;28;20390;-53
2023/04/20 07:02:08;;;;;;;14.35;3.85;;;18.90;61.70;;;;;;5011278;28;20084;-54
2023/04/20 07:04:33;;;;;;;9.15;3.85;;;18.40;61.90;;;;;;5012894;28;20026;-53
2023/04/20 07:06:59;;;;;;;10.10;4.03;;;18.20;63.00;;;;;;5011605;28;20049;-57
2023/04/20 07:09:25;;;;;;;6.55;3.28;;;18.10;59.10;;;;;;5012695;28;20068;-52
2023/04/20 07:11:51;;;;;;;10.77;4.03;;;18.80;62.60;;;;;;5012471;28;20026;-55
2023/04/20 07:14:17;;;;;;;13.30;3.90;;;19.20;57.60;;;;;;5012450;28;20022;-55
2023/04/20 07:16:42;;;;;;;8.48;3.45;;;19.40;58.20;;;;;;5012567;28;20041;-54
2023/04/20 07:19:08;;;;;;;9.25;3.50;;;19.30;57.10;;;;;;5012537;28;20101;-51
2023/04/20 07:21:34;;;;;;;10.98;3.30;;;19.80;55.00;;;;;;5012469;28;20034;-56
2023/04/20 07:24:00;;;;;;;7.97;3.60;;;20.30;55.60;;;;;;5012440;28;20030;-50
2023/04/20 07:26:26;;;;;;;8.02;3.50;;;19.80;54.80;;;;;;5012308;28;20412;-56
2023/04/20 07:28:52;;;;;;;7.63;3.38;;;20.30;54.70;;;;;;5011922;28;20394;-52
2023/04/20 07:31:17;;;;;;;8.43;2.97;;;20.30;52.90;;;;;;5011984;28;20080;-52
2023/04/20 07:33:43;;;;;;;8.15;3.22;;;20.30;54.00;;;;;;5011673;28;20025;-53
2023/04/20 07:36:09;;;;;;;8.70;3.15;;;20.60;54.10;;;;;;5008184;28;20026;-52
2023/04/20 07:38:35;;;;;;;7.35;3.13;;;20.80;53.40;;;;;;4992979;28;20105;-54
2023/04/20 07:41:02;;;;;;;8.50;3.30;;;21.80;51.50;;;;;;4996926;28;20072;-54
2023/04/20 07:43:27;;;;;;;8.07;3.70;;;20.80;50.00;;;;;;5005457;28;20075;-54
2023/04/20 07:45:53;;;;;;;9.90;2.90;;;21.00;52.30;;;;;;4993902;28;20034;-57
2023/04/20 07:48:19;;;;;;;10.13;2.90;;;21.00;53.60;;;;;;4999500;28;20470;-53
2023/04/20 07:50:45;;;;;;;10.40;3.28;;;20.80;51.10;;;;;;5003295;28;20168;-53
2023/04/20 07:53:11;;;;;;;8.77;3.40;;;20.40;54.40;;;;;;5011585;28;20456;-55
2023/04/20 07:55:36;;;;;;;11.38;3.00;;;20.60;50.10;;;;;;5006056;28;20064;-53
2023/04/20 07:58:02;;;;;;;9.43;2.92;;;20.50;50.50;;;;;;5011405;28;20064;-52
2023/04/20 08:00:28;;;;;;;9.55;2.85;;;20.80;51.40;;;;;;5011744;28;20091;-52
2023/04/20 08:02:53;;;;;;;8.18;2.75;;;21.70;52.30;;;;;;5011575;28;20030;-54
2023/04/20 08:05:19;;;;;;;7.20;2.70;;;21.70;48.10;;;;;;5011542;28;20042;-54
2023/04/20 08:07:45;;;;;;;8.68;3.20;;;22.00;47.30;;;;;;5011754;28;20172;-54
2023/04/20 08:10:11;;;;;;;5.32;2.80;;;21.60;48.70;;;;;;5007214;28;20044;-49
2023/04/20 08:12:38;;;;;;;6.45;2.60;;;22.30;48.70;;;;;;5006304;28;20076;-52
2023/04/20 08:15:05;;;;;;;5.30;2.25;;;22.90;47.30;;;;;;5010120;28;20048;-52
2023/04/20 08:17:31;;;;;;;5.78;2.30;;;22.70;49.40;;;;;;5011452;28;20022;-56
2023/04/20 08:19:58;;;;;;;10.77;2.67;;;23.70;46.20;;;;;;5009096;28;20072;-56
2023/04/20 08:22:28;;;;;;;4.40;2.30;;;24.40;46.90;;;;;;5010597;28;20042;-55
2023/04/20 08:24:57;;;;;;;6.55;2.45;;;24.00;45.10;;;;;;5010755;28;20022;-58
2023/04/20 08:27:23;;;;;;;6.53;2.35;;;24.10;43.30;;;;;;5003328;28;20032;-56
2023/04/20 08:29:49;;;;;;;5.60;2.58;;;22.50;42.30;;;;;;5010490;28;20022;-58
2023/04/20 08:32:17;;;;;;;6.38;2.08;;;22.80;45.80;;;;;;5008434;28;20050;-56
2023/04/20 08:34:43;;;;;;;7.30;2.15;;;22.80;43.00;;;;;;5010796;28;20025;-55
2023/04/20 08:37:09;;;;;;;4.40;2.22;;;22.40;42.90;;;;;;5010328;28;20092;-53
2023/04/20 08:39:35;;;;;;;6.07;2.30;;;22.30;45.30;;;;;;5010733;28;20038;-58
2023/04/20 08:42:01;;;;;;;4.25;2.13;;;21.60;42.80;;;;;;5009975;28;20025;-55
2023/04/20 08:44:27;;;;;;;5.93;2.33;;;21.70;45.80;;;;;;5010775;28;20056;-57
2023/04/20 08:46:53;;;;;;;5.20;2.20;;;22.20;46.10;;;;;;5009459;28;20045;-56
2023/04/20 08:49:20;;;;;;;4.40;1.80;;;22.10;44.80;;;;;;5011006;28;20046;-55
2023/04/20 08:51:46;;;;;;;7.43;2.47;;;21.70;44.90;;;;;;5009601;28;20057;-55
2023/04/20 08:54:12;;;;;;;6.25;2.45;;;21.00;44.60;;;;;;5009237;28;20022;-54
2023/04/20 08:56:41;;;;;;;8.20;2.90;;;21.40;44.10;;;;;;5008576;28;20075;-57
2023/04/20 08:59:10;;;;;;;7.25;2.28;;;22.30;44.70;;;;;;5009073;28;20038;-54
2023/04/20 09:01:36;;;;;;;;;;;22.80;44.70;;;;;;5008129;28;20551;-55
2023/04/20 09:04:13;;;;;;;10.05;2.78;;;23.20;42.90;;;;;;5007700;28;19906;-55
2023/04/20 09:06:43;;;;;;;5.32;2.40;;;23.50;44.30;;;;;;5006983;28;20439;-55
2023/04/20 09:09:12;;;;;;;6.82;2.50;;;23.40;42.00;;;;;;4997249;28;20026;-55
2023/04/20 09:11:37;;;;;;;6.82;2.05;;;21.90;43.10;;;;;;5003133;28;20065;-54
2023/04/20 09:14:14;;;;;;;7.32;2.55;;;20.60;46.40;;;;;;5010091;28;20061;-52
2023/04/20 09:17:01;;;;;;;4.93;2.35;;;19.30;46.90;;;;;;5010333;28;20385;-56
2023/04/20 09:19:30;;;;;;;5.35;1.88;;;18.80;49.30;;;;;;5008064;28;20069;-56
2023/04/20 09:22:04;;;;;;;;;;;18.80;50.90;;;;;;4999844;28;20092;-52
2023/04/20 09:24:31;;;;;;;3.97;1.92;;;19.90;48.80;;;;;;5000580;28;19914;-54
2023/04/20 09:26:57;;;;;;;6.30;2.58;;;22.40;50.50;;;;;;4996312;28;20114;-53
2023/04/20 09:29:26;;;;;;;4.70;1.90;;;23.30;45.30;;;;;;5001770;28;20101;-53
2023/04/20 09:31:53;;;;;;;8.90;2.08;;;22.40;41.30;;;;;;5013171;28;20029;-58
2023/04/20 09:34:19;;;;;;;5.90;1.80;;;22.00;44.30;;;;;;5013559;28;20045;-54
2023/04/20 09:36:50;;;;;;;5.65;1.90;;;22.40;43.60;;;;;;5013460;28;20022;-52
2023/04/20 09:39:17;;;;;;;5.68;2.10;;;23.50;42.70;;;;;;5013234;28;20022;-55
2023/04/20 09:41:43;;;;;;;5.82;2.05;;;24.20;42.10;;;;;;5008707;28;20525;-53
2023/04/20 09:44:10;;;;;;;5.72;2.00;;;23.60;41.80;;;;;;5014030;28;20026;-52
2023/04/20 09:46:37;;;;;;;4.10;1.70;;;25.10;44.50;;;;;;5015986;28;20038;-55
2023/04/20 09:49:08;;;;;;;4.80;1.88;;;26.30;41.30;;;;;;5014944;28;20025;-52
2023/04/20 09:51:40;;;;;;;4.22;1.63;;;26.00;39.00;;;;;;5017002;28;20481;-51
2023/04/20 09:54:09;;;;;;;7.68;1.52;;;25.50;39.50;;;;;;5013152;28;20045;-59
2023/04/20 09:56:35;;;;;;;;;;;25.00;38.50;;;;;;5011004;28;20026;-60
2023/04/20 09:59:02;;;;;;;4.97;1.80;;;24.10;41.20;;;;;;5013285;28;19926;-57
2023/04/20 10:01:34;;;;;;;5.38;1.40;;;23.70;40.00;;;;;;5019180;28;20033;-56
2023/04/20 10:04:02;;;;;;;3.83;1.60;;;23.50;41.10;;;;;;5012081;28;20022;-50
2023/04/20 10:06:32;;;;;;;5.00;1.40;;;23.20;42.50;;;;;;5013016;28;20044;-54
2023/04/20 10:09:02;;;;;;;3.55;1.60;;;22.00;43.10;;;;;;5011259;28;20330;-50
2023/04/20 10:11:39;;;;;;;;;;;21.20;43.60;;;;;;4997795;28;20634;-55
2023/04/20 10:14:16;;;;;;;3.67;1.50;;;21.20;44.10;;;;;;5010798;28;20418;-52
2023/04/20 10:16:43;;;;;;;5.60;1.30;;;21.10;44.20;;;;;;5007184;28;20496;-61
2023/04/20 10:19:09;;;;;;;5.25;1.98;;;20.50;47.10;;;;;;5013811;28;20022;-60
2023/04/20 10:21:48;;;;;;;6.22;1.77;;;19.60;45.00;;;;;;5010302;28;20080;-61
2023/04/20 10:24:15;;;;;;;5.88;1.45;;;19.30;49.40;;;;;;5012671;28;20477;-61
2023/04/20 10:26:47;;;;;;;3.17;1.40;;;19.40;49.00;;;;;;5016231;28;20033;-58
2023/04/20 10:29:26;;;;;;;5.93;1.75;;;20.00;46.00;;;;;;5013714;28;20045;-53
2023/04/20 10:31:56;;;;;;;3.30;1.45;;;20.30;46.00;;;;;;5011045;28;20025;-58
2023/04/20 10:34:35;;;;;;;7.75;1.40;;;19.90;46.10;;;;;;5010575;28;20022;-55
2023/04/20 10:37:07;;;;;;;;;;;20.50;44.00;;;;;;5013385;28;20420;-49
2023/04/20 10:39:33;;;;;;;3.50;1.35;;;21.10;43.70;;;;;;5011613;28;19917;-48
2023/04/20 10:42:00;;;;;;;5.25;1.27;;;22.50;45.40;;;;;;5013112;28;20029;-50
2023/04/20 10:44:26;;;;;;;4.22;1.20;;;22.70;40.10;;;;;;5011871;28;20026;-50
2023/04/20 10:46:53;;;;;;;3.45;1.10;;;21.70;42.30;;;;;;5012899;28;20107;-53
2023/04/20 10:49:24;;;;;;;4.32;1.60;;;21.60;41.30;;;;;;5011513;28;20022;-48
2023/04/20 10:51:51;;;;;;;3.15;1.48;;;21.50;42.60;;;;;;5011987;28;20022;-48
2023/04/20 10:54:17;;;;;;;5.15;1.58;;;20.20;43.80;;;;;;5012495;28;20489;-53
2023/04/20 10:56:46;;;;;;;6.60;1.35;;;20.00;47.50;;;;;;5012291;28;20037;-47
2023/04/20 10:59:13;;;;;;;4.07;1.40;;;19.10;44.40;;;;;;5012435;28;20121;-49
2023/04/20 11:01:40;;;;;;;4.35;1.70;;;18.50;45.90;;;;;;5011341;28;20083;-49
2023/04/20 11:04:06;;;;;;;3.88;1.40;;;18.00;47.40;;;;;;5012806;28;20029;-46
2023/04/20 11:06:33;;;;;;;2.72;1.40;;;17.70;48.10;;;;;;5011257;28;20034;-48
2023/04/20 11:08:59;;;;;;;10.35;1.90;;;18.20;48.40;;;;;;5012693;28;20078;-50
2023/04/20 11:11:26;;;;;;;5.70;1.55;;;18.40;50.30;;;;;;5012647;28;20061;-50
2023/04/20 11:14:07;;;;;;;4.85;1.65;;;19.00;47.60;;;;;;5012330;28;20065;-55
2023/04/20 11:16:33;;;;;;;5.57;1.60;;;19.70;45.40;;;;;;5012512;28;20022;-59
2023/04/20 11:18:59;;;;;;;4.35;1.40;;;20.00;45.10;;;;;;5012051;28;20079;-58
2023/04/20 11:21:38;;;;;;;4.80;1.73;;;21.00;49.80;;;;;;5011163;28;20105;-60
2023/04/20 11:24:05;;;;;;;8.25;2.10;;;22.20;45.30;;;;;;5012362;28;20018;-58
2023/04/20 11:26:36;;;;;;;4.30;1.60;;;23.50;42.30;;;;;;5012206;28;20037;-59
2023/04/20 11:29:02;;;;;;;3.65;1.25;;;23.70;40.10;;;;;;5012326;28;20030;-58
2023/04/20 11:31:28;;;;;;;5.50;1.30;;;24.20;39.80;;;;;;5006862;28;20175;-55
2023/04/20 11:33:54;;;;;;;5.95;1.40;;;23.90;38.70;;;;;;5012323;28;20826;-45
2023/04/20 11:36:25;;;;;;;4.03;1.35;;;23.80;42.00;;;;;;5011923;28;20079;-49
2023/04/20 11:38:51;;;;;;;13.90;2.05;;;24.40;41.00;;;;;;5011915;28;20175;-47
2023/04/20 11:41:17;;;;;;;5.78;1.42;;;24.40;39.50;;;;;;5011506;28;20389;-52
2023/04/20 11:43:43;;;;;;;3.83;1.35;;;25.00;37.40;;;;;;5011883;28;20034;-52
2023/04/20 11:46:13;;;;;;;3.72;1.15;;;26.00;39.70;;;;;;5011856;28;20042;-51
2023/04/20 11:48:39;;;;;;;6.93;1.20;;;25.40;37.90;;;;;;5011983;28;20492;-46
2023/04/20 11:51:05;;;;;;;6.50;1.30;;;24.70;36.50;;;;;;5010574;28;20030;-50
2023/04/20 11:53:31;;;;;;;3.13;1.40;;;23.40;39.10;;;;;;5011365;28;20033;-51
2023/04/20 11:55:56;;;;;;;6.35;1.30;;;23.60;40.60;;;;;;5011900;28;20030;-60
2023/04/20 11:58:22;;;;;;;8.00;1.40;;;23.30;38.50;;;;;;5010371;28;20037;-61
2023/04/20 12:00:48;;;;;;;5.72;1.30;;;23.10;37.90;;;;;;5015121;28;20113;-59
2023/04/20 12:03:13;;;;;;;8.13;1.40;;;23.30;38.50;;;;;;5012807;28;20049;-60
2023/04/20 12:05:39;;;;;;;9.57;1.58;;;23.90;38.80;;;;;;5016587;28;20038;-61
2023/04/20 12:08:07;;;;;;;6.07;1.48;;;23.00;38.10;;;;;;5013420;28;20046;-61
2023/04/20 12:10:32;;;;;;;4.50;1.70;;;23.20;40.20;;;;;;5014311;28;20516;-60
2023/04/20 12:12:59;;;;;;;5.20;1.42;;;22.00;38.40;;;;;;5010312;28;20034;-60
2023/04/20 12:15:25;;;;;;;5.10;1.50;;;22.00;42.60;;;;;;5007352;28;20048;-60
2023/04/20 12:17:52;;;;;;;3.60;1.20;;;22.30;42.20;;;;;;5014638;28;20032;-60
2023/04/20 12:20:18;;;;;;;4.50;1.35;;;22.70;41.90;;;;;;5012177;28;20038;-59
2023/04/20 12:22:43;;;;;;;7.15;1.60;;;23.40;42.00;;;;;;5008929;28;20029;-60
2023/04/20 12:25:09;;;;;;;4.35;1.50;;;24.20;40.70;;;;;;5005493;28;20116;-60
2023/04/20 12:27:34;;;;;;;4.13;1.17;;;24.30;39.90;;;;;;5002138;28;20370;-51
2023/04/20 12:30:00;;;;;;;3.03;1.17;;;25.00;42.00;;;;;;5011033;28;20037;-54
2023/04/20 12:32:26;;;;;;;3.85;1.23;;;25.00;40.90;;;;;;5009587;28;20049;-52
2023/04/20 12:34:52;;;;;;;2.92;1.20;;;24.70;38.00;;;;;;5010995;28;20033;-49
2023/04/20 12:37:19;;;;;;;3.75;1.58;;;23.90;38.30;;;;;;5009689;28;20030;-54
2023/04/20 12:39:44;;;;;;;8.10;1.65;;;24.10;41.10;;;;;;5011347;28;20037;-50
2023/04/20 12:42:10;;;;;;;5.07;1.40;;;22.90;37.70;;;;;;5011275;28;20381;-51
2023/04/20 12:44:35;;;;;;;7.88;1.60;;;21.80;40.40;;;;;;5010397;28;20561;-51